CST,Max TemperatureF,Mean TemperatureF,Min TemperatureF,Max Dew PointF,MeanDew PointF,Min DewpointF,Max Humidity, Mean Humidity, Min Humidity, Max Sea Level PressureIn, Mean Sea Level PressureIn, Min Sea Level PressureIn, Max VisibilityMiles, Mean VisibilityMiles, Min VisibilityMiles, Max Wind SpeedMPH, Mean Wind SpeedMPH, Max Gust SpeedMPH,PrecipitationIn, CloudCover, Events, WindDirDegrees
2012-11-1,44,36,28,41,31,23,100,82,43,30.08,30.02,29.97,10,9,4,18,11,23,0.00,2,,35
2012-11-2,37,32,28,32,28,27,100,86,65,30.12,30.04,29.97,10,10,10,16,11,17,0.00,5,,90
2012-11-3,44,35,26,41,34,27,100,93,71,30.19,30.16,30.12,10,10,10,12,4,,0.00,7,,277
2012-11-4,39,32,24,39,33,25,100,100,100,30.18,30.13,30.06,10,8,2,9,5,,0.14,6,Rain-Snow,45
2012-11-5,37,34,32,37,35,32,100,100,100,30.17,30.09,29.86,10,10,4,20,10,24,0.00,8,,294
2012-11-6,48,40,32,37,36,32,100,89,57,30.06,29.95,29.82,10,10,10,36,19,43,0.00,3,,311
2012-11-7,48,37,26,39,31,27,100,81,54,30.11,30.02,29.88,10,10,10,22,10,29,0.00,0,,209
2012-11-8,55,44,33,41,35,32,100,79,47,29.99,29.90,29.80,10,10,10,22,15,25,0.00,2,,78
2012-11-9,48,42,35,46,40,36,100,97,81,29.98,29.87,29.70,10,10,10,22,17,29,0.00,6,,75
2012-11-10,50,38,26,50,45,27,100,100,100,29.69,29.55,29.46,10,6,0,29,14,37,0.75,8,Fog-Rain-Thunderstorm,216
2012-11-11,26,20,15,27,16,9,100,88,63,29.99,29.88,29.69,10,10,10,28,22,36,0.00,8,Rain-Snow,299
2012-11-12,28,22,15,18,14,10,100,81,51,30.26,30.13,29.98,10,10,10,25,16,32,0.06,2,Rain-Snow,278
2012-11-13,32,22,17,27,20,18,100,95,75,30.26,30.24,30.23,10,10,10,10,8,,0.00,0,,186
2012-11-14,48,42,35,32,31,28,87,72,54,30.13,30.10,30.08,10,10,10,15,12,20,0.00,0,,173
2012-11-15,44,32,19,36,27,18,100,84,46,30.45,30.29,30.08,10,10,10,14,10,18,0.00,0,,342
2012-11-16,46,30,15,36,24,16,100,80,46,30.45,30.31,30.16,10,10,10,18,8,25,0.00,0,,159
2012-11-17,55,45,35,37,37,34,100,78,47,30.16,30.07,30.01,10,10,10,26,15,36,0.00,0,,174
2012-11-18,57,44,32,39,36,32,100,77,47,30.02,29.98,29.93,10,10,10,20,13,25,0.00,0,,170
2012-11-19,53,42,30,43,37,30,100,86,54,30.14,30.01,29.91,10,10,10,16,11,21,0.00,0,,319
2012-11-20,57,40,24,37,31,25,100,75,33,30.17,30.08,29.96,10,10,3,18,7,21,0.00,0,,184
2012-11-21,66,49,32,41,34,32,100,63,28,29.96,29.81,29.64,10,10,10,21,10,29,0.00,0,,187
2012-11-22,50,36,23,39,30,18,100,75,43,30.23,29.89,29.62,10,10,10,34,18,45,0.01,4,Rain,307
2012-11-23,24,19,14,16,12,9,93,76,50,30.47,30.38,30.24,10,10,10,38,22,50,0.00,4,Rain-Snow,326
2012-11-24,35,24,14,23,16,12,100,67,44,30.31,29.98,29.80,10,10,10,24,11,32,0.00,4,,183
2012-11-25,32,28,23,30,25,23,100,92,69,30.18,30.00,29.85,10,10,10,15,10,20,0.00,4,,325
2012-11-26,24,18,12,23,11,7,100,77,54,30.42,30.33,30.19,10,10,10,15,10,,0.00,4,Snow,323
2012-11-27,33,24,14,27,21,7,100,92,68,30.30,30.17,30.08,10,10,10,14,10,17,0.00,0,,242
2012-11-28,39,26,12,32,21,12,100,85,52,30.28,30.15,29.99,10,10,10,21,6,24,0.00,0,,183
2012-11-29,41,28,14,28,23,14,100,86,56,30.01,29.97,29.90,10,10,10,17,7,21,0.00,1,,71
2012-11-30,37,27,17,36,28,18,100,99,81,30.10,30.00,29.87,10,8,0,18,10,23,0.00,2,Fog,108